Anthony, Idaho
Current Conditions -  °F | °C
As of 8:53 PM on Wednesday 26 Nov 2014 (Local Time) from KRXE Reporting Station
Clear Clear  
Wind Chill: 39°   Ceiling: Unl
Heat Index: 42°   Visibility: 10mi
Dew Point: 30°   Wind: 5mph
Humidity: 62%   Direction: 210°SSW
Pressure: 30.26"   Gusts: NA
Location:  44.2887°N, 111.507°W
Report Text: KRXE 270353Z AUTO 21004KT 10SM CLR 06/M01 A3026 RMK AO2 SLP252 T00561011
Loading
Personal Weather Stations






























Interactive Weather Map New forecast layout! Learn more

10-Day Weather Forecast

Advertisements
Track Severe Weather on mobile